sensor_id;sensor_type;location;lat;lon;timestamp;temperature;humidity
10316;DHT22;5203;48.976;8.306;2022-11-20T00:01:42;6.90;99.90
10316;DHT22;5203;48.976;8.306;2022-11-20T00:04:09;6.90;99.90
10316;DHT22;5203;48.976;8.306;2022-11-20T00:06:35;6.90;99.90
10316;DHT22;5203;48.976;8.306;2022-11-20T00:09:01;6.90;99.90
10316;DHT22;5203;48.976;8.306;2022-11-20T00:11:28;7.00;99.90
10316;DHT22;5203;48.976;8.306;2022-11-20T00:13:57;7.00;99.90
10316;DHT22;5203;48.976;8.306;2022-11-20T00:16:24;6.90;99.90
10316;DHT22;5203;48.976;8.306;2022-11-20T00:18:50;7.00;99.90
10316;DHT22;5203;48.976;8.306;2022-11-20T00:21:19;6.90;99.90
10316;DHT22;5203;48.976;8.306;2022-11-20T00:23:45;6.60;99.90
10316;DHT22;5203;48.976;8.306;2022-11-20T00:26:14;6.60;99.90
10316;DHT22;5203;48.976;8.306;2022-11-20T00:28:41;6.60;99.90
10316;DHT22;5203;48.976;8.306;2022-11-20T00:31:12;6.70;99.90
10316;DHT22;5203;48.976;8.306;2022-11-20T00:33:38;6.70;99.90
10316;DHT22;5203;48.976;8.306;2022-11-20T00:36:06;6.60;99.90
10316;DHT22;5203;48.976;8.306;2022-11-20T00:38:33;6.70;99.90
10316;DHT22;5203;48.976;8.306;2022-11-20T00:41:03;6.70;99.90
10316;DHT22;5203;48.976;8.306;2022-11-20T00:43:30;6.70;99.90
10316;DHT22;5203;48.976;8.306;2022-11-20T00:45:57;6.70;99.90
10316;DHT22;5203;48.976;8.306;2022-11-20T00:48:23;6.60;99.90
10316;DHT22;5203;48.976;8.306;2022-11-20T00:50:49;6.60;99.90
10316;DHT22;5203;48.976;8.306;2022-11-20T00:53:15;6.70;99.90
10316;DHT22;5203;48.976;8.306;2022-11-20T00:55:40;6.70;99.90
10316;DHT22;5203;48.976;8.306;2022-11-20T00:58:06;6.80;99.90
10316;DHT22;5203;48.976;8.306;2022-11-20T01:00:32;6.80;99.90
10316;DHT22;5203;48.976;8.306;2022-11-20T01:02:58;6.80;99.90
10316;DHT22;5203;48.976;8.306;2022-11-20T01:05:23;6.90;99.90
10316;DHT22;5203;48.976;8.306;2022-11-20T01:07:49;6.80;99.90
10316;DHT22;5203;48.976;8.306;2022-11-20T01:10:15;6.70;99.90
10316;DHT22;5203;48.976;8.306;2022-11-20T01:12:40;6.80;99.90
10316;DHT22;5203;48.976;8.306;2022-11-20T01:15:06;6.90;99.90
10316;DHT22;5203;48.976;8.306;2022-11-20T01:17:33;6.90;99.90
10316;DHT22;5203;48.976;8.306;2022-11-20T01:19:59;7.00;99.90
10316;DHT22;5203;48.976;8.306;2022-11-20T01:22:24;6.90;99.90
10316;DHT22;5203;48.976;8.306;2022-11-20T01:24:50;6.90;99.90
10316;DHT22;5203;48.976;8.306;2022-11-20T01:27:16;6.90;99.90
10316;DHT22;5203;48.976;8.306;2022-11-20T01:29:41;6.70;99.90
10316;DHT22;5203;48.976;8.306;2022-11-20T01:32:07;6.60;99.90
10316;DHT22;5203;48.976;8.306;2022-11-20T01:34:33;6.40;99.90
10316;DHT22;5203;48.976;8.306;2022-11-20T01:36:58;6.30;99.90
10316;DHT22;5203;48.976;8.306;2022-11-20T01:39:25;6.30;99.90
10316;DHT22;5203;48.976;8.306;2022-11-20T01:41:53;6.20;99.90
10316;DHT22;5203;48.976;8.306;2022-11-20T01:44:51;6.30;99.90
10316;DHT22;5203;48.976;8.306;2022-11-20T01:47:25;6.50;99.90
10316;DHT22;5203;48.976;8.306;2022-11-20T01:49:57;6.60;99.90
10316;DHT22;5203;48.976;8.306;2022-11-20T01:52:31;6.70;99.90
10316;DHT22;5203;48.976;8.306;2022-11-20T01:55:05;6.80;99.90
10316;DHT22;5203;48.976;8.306;2022-11-20T01:57:34;6.80;99.90
10316;DHT22;5203;48.976;8.306;2022-11-20T02:00:10;6.80;99.90
10316;DHT22;5203;48.976;8.306;2022-11-20T02:02:38;6.90;99.90
10316;DHT22;5203;48.976;8.306;2022-11-20T02:05:14;6.70;99.90
10316;DHT22;5203;48.976;8.306;2022-11-20T02:07:43;6.70;99.90
10316;DHT22;5203;48.976;8.306;2022-11-20T02:10:10;6.80;99.90
10316;DHT22;5203;48.976;8.306;2022-11-20T02:12:36;6.80;99.90
10316;DHT22;5203;48.976;8.306;2022-11-20T02:15:21;6.70;99.90
10316;DHT22;5203;48.976;8.306;2022-11-20T02:17:46;6.70;99.90
10316;DHT22;5203;48.976;8.306;2022-11-20T02:20:13;6.60;99.90
10316;DHT22;5203;48.976;8.306;2022-11-20T02:22:48;6.70;99.90
10316;DHT22;5203;48.976;8.306;2022-11-20T02:25:16;6.80;99.90
10316;DHT22;5203;48.976;8.306;2022-11-20T02:27:42;6.80;99.90
10316;DHT22;5203;48.976;8.306;2022-11-20T02:30:09;6.90;99.90
10316;DHT22;5203;48.976;8.306;2022-11-20T02:32:37;6.90;99.90
10316;DHT22;5203;48.976;8.306;2022-11-20T02:37:45;7.00;99.90
10316;DHT22;5203;48.976;8.306;2022-11-20T02:40:12;6.90;99.90
10316;DHT22;5203;48.976;8.306;2022-11-20T02:42:38;6.90;99.90
10316;DHT22;5203;48.976;8.306;2022-11-20T02:45:05;7.00;99.90
10316;DHT22;5203;48.976;8.306;2022-11-20T02:47:32;6.90;99.90
10316;DHT22;5203;48.976;8.306;2022-11-20T02:49:57;7.00;99.90
10316;DHT22;5203;48.976;8.306;2022-11-20T02:52:24;7.10;99.90
10316;DHT22;5203;48.976;8.306;2022-11-20T02:54:49;7.10;99.90
10316;DHT22;5203;48.976;8.306;2022-11-20T02:57:15;7.10;99.90
10316;DHT22;5203;48.976;8.306;2022-11-20T02:59:41;7.20;99.90
10316;DHT22;5203;48.976;8.306;2022-11-20T03:02:06;7.10;99.90
10316;DHT22;5203;48.976;8.306;2022-11-20T03:04:32;7.20;99.90
10316;DHT22;5203;48.976;8.306;2022-11-20T03:06:58;7.20;99.90
10316;DHT22;5203;48.976;8.306;2022-11-20T03:09:23;7.20;99.90
10316;DHT22;5203;48.976;8.306;2022-11-20T03:11:49;7.10;99.90
10316;DHT22;5203;48.976;8.306;2022-11-20T03:14:15;7.00;99.90
10316;DHT22;5203;48.976;8.306;2022-11-20T03:16:41;7.00;99.90
10316;DHT22;5203;48.976;8.306;2022-11-20T03:19:07;7.00;99.90
10316;DHT22;5203;48.976;8.306;2022-11-20T03:21:33;7.00;99.90
10316;DHT22;5203;48.976;8.306;2022-11-20T03:23:59;7.00;99.90
10316;DHT22;5203;48.976;8.306;2022-11-20T03:26:26;7.00;99.90
10316;DHT22;5203;48.976;8.306;2022-11-20T03:28:59;7.00;99.90
10316;DHT22;5203;48.976;8.306;2022-11-20T03:31:36;7.00;99.90
10316;DHT22;5203;48.976;8.306;2022-11-20T03:34:03;7.10;99.90
10316;DHT22;5203;48.976;8.306;2022-11-20T03:36:29;7.10;99.90
10316;DHT22;5203;48.976;8.306;2022-11-20T03:38:56;7.00;99.90
10316;DHT22;5203;48.976;8.306;2022-11-20T03:41:27;7.10;99.90
10316;DHT22;5203;48.976;8.306;2022-11-20T03:43:55;7.10;99.90
10316;DHT22;5203;48.976;8.306;2022-11-20T03:46:22;7.20;99.90
10316;DHT22;5203;48.976;8.306;2022-11-20T03:48:48;7.10;99.90
10316;DHT22;5203;48.976;8.306;2022-11-20T03:51:16;7.10;99.90
10316;DHT22;5203;48.976;8.306;2022-11-20T03:53:43;7.10;99.90
10316;DHT22;5203;48.976;8.306;2022-11-20T03:56:10;7.10;99.90
10316;DHT22;5203;48.976;8.306;2022-11-20T03:58:37;7.10;99.90
10316;DHT22;5203;48.976;8.306;2022-11-20T04:01:16;7.10;99.90
10316;DHT22;5203;48.976;8.306;2022-11-20T04:03:43;7.20;99.90
10316;DHT22;5203;48.976;8.306;2022-11-20T04:06:12;7.20;99.90
10316;DHT22;5203;48.976;8.306;2022-11-20T04:08:39;7.20;99.90
10316;DHT22;5203;48.976;8.306;2022-11-20T04:11:32;7.20;99.90
10316;DHT22;5203;48.976;8.306;2022-11-20T04:14:00;7.20;99.90
10316;DHT22;5203;48.976;8.306;2022-11-20T04:16:28;7.20;99.90
10316;DHT22;5203;48.976;8.306;2022-11-20T04:18:56;7.20;99.90
10316;DHT22;5203;48.976;8.306;2022-11-20T04:21:22;7.30;99.90
10316;DHT22;5203;48.976;8.306;2022-11-20T04:23:49;7.30;99.90
10316;DHT22;5203;48.976;8.306;2022-11-20T04:26:15;7.20;99.90
10316;DHT22;5203;48.976;8.306;2022-11-20T04:28:41;7.20;99.90
10316;DHT22;5203;48.976;8.306;2022-11-20T04:31:12;7.20;99.90
10316;DHT22;5203;48.976;8.306;2022-11-20T04:33:39;7.20;99.90
10316;DHT22;5203;48.976;8.306;2022-11-20T04:36:10;7.10;99.90
10316;DHT22;5203;48.976;8.306;2022-11-20T04:38:37;7.20;99.90
10316;DHT22;5203;48.976;8.306;2022-11-20T04:41:05;7.20;99.90
10316;DHT22;5203;48.976;8.306;2022-11-20T04:43:31;7.20;99.90
10316;DHT22;5203;48.976;8.306;2022-11-20T04:45:58;7.30;99.90
10316;DHT22;5203;48.976;8.306;2022-11-20T04:48:25;7.30;99.90
10316;DHT22;5203;48.976;8.306;2022-11-20T04:50:52;7.20;99.90
10316;DHT22;5203;48.976;8.306;2022-11-20T04:53:18;7.20;99.90
10316;DHT22;5203;48.976;8.306;2022-11-20T04:55:44;7.20;99.90
10316;DHT22;5203;48.976;8.306;2022-11-20T04:58:11;7.10;99.90
10316;DHT22;5203;48.976;8.306;2022-11-20T05:00:36;7.30;99.90
10316;DHT22;5203;48.976;8.306;2022-11-20T05:03:02;7.30;99.90
10316;DHT22;5203;48.976;8.306;2022-11-20T05:05:28;7.20;99.90
10316;DHT22;5203;48.976;8.306;2022-11-20T05:07:58;7.20;99.90
10316;DHT22;5203;48.976;8.306;2022-11-20T05:10:25;7.20;99.90
10316;DHT22;5203;48.976;8.306;2022-11-20T05:12:51;7.10;99.90
10316;DHT22;5203;48.976;8.306;2022-11-20T05:15:17;7.10;99.90
10316;DHT22;5203;48.976;8.306;2022-11-20T05:17:52;7.10;99.90
10316;DHT22;5203;48.976;8.306;2022-11-20T05:20:18;7.10;99.90
10316;DHT22;5203;48.976;8.306;2022-11-20T05:22:45;7.20;99.90
10316;DHT22;5203;48.976;8.306;2022-11-20T05:25:11;7.20;99.90
10316;DHT22;5203;48.976;8.306;2022-11-20T05:27:37;7.20;99.90
10316;DHT22;5203;48.976;8.306;2022-11-20T05:30:07;7.10;99.90
10316;DHT22;5203;48.976;8.306;2022-11-20T05:32:33;7.20;99.90
10316;DHT22;5203;48.976;8.306;2022-11-20T05:34:59;7.20;99.90
10316;DHT22;5203;48.976;8.306;2022-11-20T05:37:25;7.20;99.90
10316;DHT22;5203;48.976;8.306;2022-11-20T05:39:51;7.10;99.90
10316;DHT22;5203;48.976;8.306;2022-11-20T05:42:16;7.10;99.90
10316;DHT22;5203;48.976;8.306;2022-11-20T05:45:02;7.10;99.90
10316;DHT22;5203;48.976;8.306;2022-11-20T05:47:32;7.00;99.90
10316;DHT22;5203;48.976;8.306;2022-11-20T05:49:58;7.00;99.90
10316;DHT22;5203;48.976;8.306;2022-11-20T05:52:24;7.00;99.90
10316;DHT22;5203;48.976;8.306;2022-11-20T05:54:53;7.00;99.90
10316;DHT22;5203;48.976;8.306;2022-11-20T05:57:18;7.10;99.90
10316;DHT22;5203;48.976;8.306;2022-11-20T05:59:44;7.10;99.90
10316;DHT22;5203;48.976;8.306;2022-11-20T06:02:10;7.10;99.90
10316;DHT22;5203;48.976;8.306;2022-11-20T06:04:35;7.20;99.90
10316;DHT22;5203;48.976;8.306;2022-11-20T06:07:01;7.10;99.90
10316;DHT22;5203;48.976;8.306;2022-11-20T06:09:27;7.10;99.90
10316;DHT22;5203;48.976;8.306;2022-11-20T06:11:52;7.10;99.90
10316;DHT22;5203;48.976;8.306;2022-11-20T06:14:18;7.10;99.90
10316;DHT22;5203;48.976;8.306;2022-11-20T06:16:44;7.10;99.90
10316;DHT22;5203;48.976;8.306;2022-11-20T06:19:10;7.00;99.90
10316;DHT22;5203;48.976;8.306;2022-11-20T06:21:35;7.10;99.90
10316;DHT22;5203;48.976;8.306;2022-11-20T06:24:01;7.10;99.90
10316;DHT22;5203;48.976;8.306;2022-11-20T06:26:27;7.10;99.90
10316;DHT22;5203;48.976;8.306;2022-11-20T06:28:53;7.10;99.90
10316;DHT22;5203;48.976;8.306;2022-11-20T06:31:24;7.00;99.90
10316;DHT22;5203;48.976;8.306;2022-11-20T06:33:51;7.00;99.90
10316;DHT22;5203;48.976;8.306;2022-11-20T06:36:19;7.00;99.90
10316;DHT22;5203;48.976;8.306;2022-11-20T06:38:45;7.00;99.90
10316;DHT22;5203;48.976;8.306;2022-11-20T06:41:14;7.00;99.90
10316;DHT22;5203;48.976;8.306;2022-11-20T06:43:40;7.00;99.90
10316;DHT22;5203;48.976;8.306;2022-11-20T06:46:06;7.00;99.90
10316;DHT22;5203;48.976;8.306;2022-11-20T06:48:32;7.00;99.90
10316;DHT22;5203;48.976;8.306;2022-11-20T06:50:58;7.10;99.90
10316;DHT22;5203;48.976;8.306;2022-11-20T06:53:24;7.10;99.90
10316;DHT22;5203;48.976;8.306;2022-11-20T06:55:50;7.10;99.90
10316;DHT22;5203;48.976;8.306;2022-11-20T06:58:17;7.00;99.90
10316;DHT22;5203;48.976;8.306;2022-11-20T07:00:43;7.00;99.90
10316;DHT22;5203;48.976;8.306;2022-11-20T07:03:11;7.10;99.90
10316;DHT22;5203;48.976;8.306;2022-11-20T07:05:37;7.10;99.90
10316;DHT22;5203;48.976;8.306;2022-11-20T07:08:04;7.10;99.90
10316;DHT22;5203;48.976;8.306;2022-11-20T07:10:31;7.10;99.90
10316;DHT22;5203;48.976;8.306;2022-11-20T07:12:56;7.20;99.90
10316;DHT22;5203;48.976;8.306;2022-11-20T07:15:23;7.10;99.90
10316;DHT22;5203;48.976;8.306;2022-11-20T07:17:50;7.10;99.90
10316;DHT22;5203;48.976;8.306;2022-11-20T07:20:16;7.10;99.90
10316;DHT22;5203;48.976;8.306;2022-11-20T07:22:42;7.10;99.90
10316;DHT22;5203;48.976;8.306;2022-11-20T07:25:09;7.00;99.90
10316;DHT22;5203;48.976;8.306;2022-11-20T07:27:35;7.00;99.90
10316;DHT22;5203;48.976;8.306;2022-11-20T07:30:03;7.10;99.90
10316;DHT22;5203;48.976;8.306;2022-11-20T07:32:28;7.20;99.90
10316;DHT22;5203;48.976;8.306;2022-11-20T07:34:54;7.10;99.90
10316;DHT22;5203;48.976;8.306;2022-11-20T07:37:20;7.20;99.90
10316;DHT22;5203;48.976;8.306;2022-11-20T07:39:46;7.20;99.90
10316;DHT22;5203;48.976;8.306;2022-11-20T07:42:13;7.20;99.90
10316;DHT22;5203;48.976;8.306;2022-11-20T07:44:39;7.20;99.90
10316;DHT22;5203;48.976;8.306;2022-11-20T07:47:05;7.30;99.90
10316;DHT22;5203;48.976;8.306;2022-11-20T07:49:30;7.20;99.90
10316;DHT22;5203;48.976;8.306;2022-11-20T07:51:56;7.10;99.90
10316;DHT22;5203;48.976;8.306;2022-11-20T07:54:22;7.10;99.90
10316;DHT22;5203;48.976;8.306;2022-11-20T07:56:49;7.10;99.90
10316;DHT22;5203;48.976;8.306;2022-11-20T07:59:15;7.10;99.90
10316;DHT22;5203;48.976;8.306;2022-11-20T08:01:41;7.00;99.90
10316;DHT22;5203;48.976;8.306;2022-11-20T08:04:09;7.00;99.90
10316;DHT22;5203;48.976;8.306;2022-11-20T08:06:35;7.00;99.90
10316;DHT22;5203;48.976;8.306;2022-11-20T08:09:01;7.00;99.90
10316;DHT22;5203;48.976;8.306;2022-11-20T08:11:28;7.00;99.90
10316;DHT22;5203;48.976;8.306;2022-11-20T08:14:13;7.00;99.90
10316;DHT22;5203;48.976;8.306;2022-11-20T08:16:48;7.00;99.90
10316;DHT22;5203;48.976;8.306;2022-11-20T08:19:16;7.00;99.90
10316;DHT22;5203;48.976;8.306;2022-11-20T08:21:42;6.90;99.90
10316;DHT22;5203;48.976;8.306;2022-11-20T08:24:09;6.90;99.90
10316;DHT22;5203;48.976;8.306;2022-11-20T08:26:37;7.10;99.90
10316;DHT22;5203;48.976;8.306;2022-11-20T08:29:04;7.20;99.90
10316;DHT22;5203;48.976;8.306;2022-11-20T08:31:30;7.10;99.90
10316;DHT22;5203;48.976;8.306;2022-11-20T08:33:55;7.10;99.90
10316;DHT22;5203;48.976;8.306;2022-11-20T08:36:22;7.00;99.90
10316;DHT22;5203;48.976;8.306;2022-11-20T08:38:49;7.00;99.90
10316;DHT22;5203;48.976;8.306;2022-11-20T08:41:16;7.10;99.90
10316;DHT22;5203;48.976;8.306;2022-11-20T08:43:53;7.10;99.90
10316;DHT22;5203;48.976;8.306;2022-11-20T08:46:19;7.10;99.90
10316;DHT22;5203;48.976;8.306;2022-11-20T08:48:45;7.20;99.90
10316;DHT22;5203;48.976;8.306;2022-11-20T08:51:11;7.20;99.90
10316;DHT22;5203;48.976;8.306;2022-11-20T08:53:37;7.30;99.90
10316;DHT22;5203;48.976;8.306;2022-11-20T08:56:03;7.30;99.90
10316;DHT22;5203;48.976;8.306;2022-11-20T08:58:29;7.30;99.90
10316;DHT22;5203;48.976;8.306;2022-11-20T09:03:28;7.30;99.90
10316;DHT22;5203;48.976;8.306;2022-11-20T09:06:05;7.30;99.90
10316;DHT22;5203;48.976;8.306;2022-11-20T09:08:31;7.30;99.90
10316;DHT22;5203;48.976;8.306;2022-11-20T09:10:58;7.30;99.90
10316;DHT22;5203;48.976;8.306;2022-11-20T09:13:25;7.30;99.90
10316;DHT22;5203;48.976;8.306;2022-11-20T09:15:58;7.30;99.90
10316;DHT22;5203;48.976;8.306;2022-11-20T09:18:25;7.40;99.90
10316;DHT22;5203;48.976;8.306;2022-11-20T09:20:51;7.40;99.90
10316;DHT22;5203;48.976;8.306;2022-11-20T09:23:17;7.30;99.90
10316;DHT22;5203;48.976;8.306;2022-11-20T09:25:43;7.40;99.90
10316;DHT22;5203;48.976;8.306;2022-11-20T09:28:09;7.40;99.90
10316;DHT22;5203;48.976;8.306;2022-11-20T09:30:35;7.40;99.90
10316;DHT22;5203;48.976;8.306;2022-11-20T09:33:01;7.30;99.90
10316;DHT22;5203;48.976;8.306;2022-11-20T09:35:26;7.30;99.90
10316;DHT22;5203;48.976;8.306;2022-11-20T09:37:52;7.40;99.90
10316;DHT22;5203;48.976;8.306;2022-11-20T09:40:22;7.40;99.90
10316;DHT22;5203;48.976;8.306;2022-11-20T09:42:56;7.30;99.90
10316;DHT22;5203;48.976;8.306;2022-11-20T09:49:36;7.50;99.90
10316;DHT22;5203;48.976;8.306;2022-11-20T09:52:11;7.50;99.90
10316;DHT22;5203;48.976;8.306;2022-11-20T09:54:42;7.40;99.90
10316;DHT22;5203;48.976;8.306;2022-11-20T09:57:11;7.50;99.90
10316;DHT22;5203;48.976;8.306;2022-11-20T09:59:39;7.50;99.90
10316;DHT22;5203;48.976;8.306;2022-11-20T10:02:30;7.50;99.90
10316;DHT22;5203;48.976;8.306;2022-11-20T10:08:18;7.50;99.90
10316;DHT22;5203;48.976;8.306;2022-11-20T10:10:52;7.50;99.90
10316;DHT22;5203;48.976;8.306;2022-11-20T10:13:40;7.60;99.90
10316;DHT22;5203;48.976;8.306;2022-11-20T10:22:28;7.80;99.90
10316;DHT22;5203;48.976;8.306;2022-11-20T10:25:06;7.90;99.90
10316;DHT22;5203;48.976;8.306;2022-11-20T10:30:21;8.20;99.90
10316;DHT22;5203;48.976;8.306;2022-11-20T10:33:05;8.10;99.90
10316;DHT22;5203;48.976;8.306;2022-11-20T10:35:35;8.00;99.90
10316;DHT22;5203;48.976;8.306;2022-11-20T10:41:28;8.00;99.90
10316;DHT22;5203;48.976;8.306;2022-11-20T10:44:03;8.20;99.90
10316;DHT22;5203;48.976;8.306;2022-11-20T10:46:44;8.20;99.90
10316;DHT22;5203;48.976;8.306;2022-11-20T10:49:16;8.40;99.90
10316;DHT22;5203;48.976;8.306;2022-11-20T10:51:52;8.30;99.90
10316;DHT22;5203;48.976;8.306;2022-11-20T10:54:54;8.30;99.90
10316;DHT22;5203;48.976;8.306;2022-11-20T11:00:12;8.60;99.90
10316;DHT22;5203;48.976;8.306;2022-11-20T11:02:39;8.80;99.90
10316;DHT22;5203;48.976;8.306;2022-11-20T11:07:57;8.90;99.90
10316;DHT22;5203;48.976;8.306;2022-11-20T11:13:26;9.00;99.90
10316;DHT22;5203;48.976;8.306;2022-11-20T11:15:53;9.10;99.90
10316;DHT22;5203;48.976;8.306;2022-11-20T11:18:26;9.00;99.90
10316;DHT22;5203;48.976;8.306;2022-11-20T11:20:53;9.40;99.90
10316;DHT22;5203;48.976;8.306;2022-11-20T11:23:34;9.80;99.20
10316;DHT22;5203;48.976;8.306;2022-11-20T11:26:04;10.10;99.30
10316;DHT22;5203;48.976;8.306;2022-11-20T11:28:30;10.10;98.30
10316;DHT22;5203;48.976;8.306;2022-11-20T11:30:56;10.10;97.70
10316;DHT22;5203;48.976;8.306;2022-11-20T11:38:30;10.70;96.30
10316;DHT22;5203;48.976;8.306;2022-11-20T11:40:58;10.70;95.40
10316;DHT22;5203;48.976;8.306;2022-11-20T11:43:26;10.50;95.70
10316;DHT22;5203;48.976;8.306;2022-11-20T11:46:34;10.40;97.80
10316;DHT22;5203;48.976;8.306;2022-11-20T11:51:46;10.10;95.80
10316;DHT22;5203;48.976;8.306;2022-11-20T11:54:24;10.10;98.00
10316;DHT22;5203;48.976;8.306;2022-11-20T11:56:51;10.80;96.10
10316;DHT22;5203;48.976;8.306;2022-11-20T11:59:32;11.20;93.00
10316;DHT22;5203;48.976;8.306;2022-11-20T12:02:04;11.40;91.20
10316;DHT22;5203;48.976;8.306;2022-11-20T12:04:51;11.80;88.00
10316;DHT22;5203;48.976;8.306;2022-11-20T12:09:54;11.90;78.30
10316;DHT22;5203;48.976;8.306;2022-11-20T12:12:39;11.60;81.40
10316;DHT22;5203;48.976;8.306;2022-11-20T12:15:10;11.00;82.70
10316;DHT22;5203;48.976;8.306;2022-11-20T12:17:37;10.60;83.20
10316;DHT22;5203;48.976;8.306;2022-11-20T12:20:05;10.20;83.90
10316;DHT22;5203;48.976;8.306;2022-11-20T12:23:27;10.40;86.00
10316;DHT22;5203;48.976;8.306;2022-11-20T12:25:35;10.50;86.40
10316;DHT22;5203;48.976;8.306;2022-11-20T12:30:39;10.60;83.50
10316;DHT22;5203;48.976;8.306;2022-11-20T12:39:07;10.10;80.40
10316;DHT22;5203;48.976;8.306;2022-11-20T12:53:04;10.60;76.60
10316;DHT22;5203;48.976;8.306;2022-11-20T13:00:47;10.00;78.50
10316;DHT22;5203;48.976;8.306;2022-11-20T13:06:01;10.50;78.30
10316;DHT22;5203;48.976;8.306;2022-11-20T13:08:35;10.70;77.10
10316;DHT22;5203;48.976;8.306;2022-11-20T13:19:04;11.10;69.80
10316;DHT22;5203;48.976;8.306;2022-11-20T13:21:47;11.20;69.40
10316;DHT22;5203;48.976;8.306;2022-11-20T13:29:35;10.60;72.20
10316;DHT22;5203;48.976;8.306;2022-11-20T13:32:17;10.40;70.80
10316;DHT22;5203;48.976;8.306;2022-11-20T13:35:40;10.30;71.50
10316;DHT22;5203;48.976;8.306;2022-11-20T13:38:10;10.20;73.40
10316;DHT22;5203;48.976;8.306;2022-11-20T13:40:57;10.30;69.40
10316;DHT22;5203;48.976;8.306;2022-11-20T13:48:24;10.30;72.30
10316;DHT22;5203;48.976;8.306;2022-11-20T13:56:40;9.90;72.70
10316;DHT22;5203;48.976;8.306;2022-11-20T14:01:57;10.10;71.30
10316;DHT22;5203;48.976;8.306;2022-11-20T14:04:33;10.10;70.10
10316;DHT22;5203;48.976;8.306;2022-11-20T14:07:00;10.00;70.30
10316;DHT22;5203;48.976;8.306;2022-11-20T14:09:28;9.80;72.10
10316;DHT22;5203;48.976;8.306;2022-11-20T14:11:54;9.50;74.30
10316;DHT22;5203;48.976;8.306;2022-11-20T14:14:22;9.60;74.40
10316;DHT22;5203;48.976;8.306;2022-11-20T14:16:49;9.50;76.30
10316;DHT22;5203;48.976;8.306;2022-11-20T14:21:54;9.50;76.40
10316;DHT22;5203;48.976;8.306;2022-11-20T14:24:24;9.50;77.80
10316;DHT22;5203;48.976;8.306;2022-11-20T14:26:51;9.60;75.10
10316;DHT22;5203;48.976;8.306;2022-11-20T14:29:23;9.40;76.90
10316;DHT22;5203;48.976;8.306;2022-11-20T14:31:53;9.30;75.10
10316;DHT22;5203;48.976;8.306;2022-11-20T14:34:22;9.40;77.10
10316;DHT22;5203;48.976;8.306;2022-11-20T14:36:58;9.40;76.90
10316;DHT22;5203;48.976;8.306;2022-11-20T14:39:47;9.50;75.30
10316;DHT22;5203;48.976;8.306;2022-11-20T14:42:19;9.40;74.60
10316;DHT22;5203;48.976;8.306;2022-11-20T14:44:49;9.40;73.50
10316;DHT22;5203;48.976;8.306;2022-11-20T14:47:19;9.30;76.90
10316;DHT22;5203;48.976;8.306;2022-11-20T14:49:47;9.10;78.10
10316;DHT22;5203;48.976;8.306;2022-11-20T14:54:48;9.20;76.50
10316;DHT22;5203;48.976;8.306;2022-11-20T14:57:35;9.10;77.40
10316;DHT22;5203;48.976;8.306;2022-11-20T15:00:19;9.10;78.40
10316;DHT22;5203;48.976;8.306;2022-11-20T15:02:47;8.90;78.20
10316;DHT22;5203;48.976;8.306;2022-11-20T15:05:14;8.90;77.00
10316;DHT22;5203;48.976;8.306;2022-11-20T15:07:42;9.00;76.40
10316;DHT22;5203;48.976;8.306;2022-11-20T15:10:20;8.90;77.30
10316;DHT22;5203;48.976;8.306;2022-11-20T15:15:19;8.80;77.70
10316;DHT22;5203;48.976;8.306;2022-11-20T15:17:46;8.90;77.30
10316;DHT22;5203;48.976;8.306;2022-11-20T15:20:14;8.80;78.10
10316;DHT22;5203;48.976;8.306;2022-11-20T15:22:40;8.80;79.00
10316;DHT22;5203;48.976;8.306;2022-11-20T15:25:17;8.80;79.90
10316;DHT22;5203;48.976;8.306;2022-11-20T15:27:44;8.80;80.20
10316;DHT22;5203;48.976;8.306;2022-11-20T15:30:15;8.70;79.50
10316;DHT22;5203;48.976;8.306;2022-11-20T15:32:42;8.70;79.70
10316;DHT22;5203;48.976;8.306;2022-11-20T15:35:08;8.70;79.00
10316;DHT22;5203;48.976;8.306;2022-11-20T15:37:35;8.80;78.10
10316;DHT22;5203;48.976;8.306;2022-11-20T15:40:01;8.90;78.60
10316;DHT22;5203;48.976;8.306;2022-11-20T15:42:27;8.80;77.30
10316;DHT22;5203;48.976;8.306;2022-11-20T15:44:52;8.80;78.50
10316;DHT22;5203;48.976;8.306;2022-11-20T15:47:20;8.70;80.50
10316;DHT22;5203;48.976;8.306;2022-11-20T15:49:48;8.80;79.30
10316;DHT22;5203;48.976;8.306;2022-11-20T15:52:14;8.80;79.00
10316;DHT22;5203;48.976;8.306;2022-11-20T15:54:40;8.80;79.30
10316;DHT22;5203;48.976;8.306;2022-11-20T15:57:06;8.90;78.80
10316;DHT22;5203;48.976;8.306;2022-11-20T15:59:32;8.80;79.00
10316;DHT22;5203;48.976;8.306;2022-11-20T16:01:57;8.80;79.60
10316;DHT22;5203;48.976;8.306;2022-11-20T16:04:23;8.80;80.30
10316;DHT22;5203;48.976;8.306;2022-11-20T16:06:49;8.80;78.30
10316;DHT22;5203;48.976;8.306;2022-11-20T16:09:14;8.90;77.10
10316;DHT22;5203;48.976;8.306;2022-11-20T16:11:40;8.80;78.30
10316;DHT22;5203;48.976;8.306;2022-11-20T16:14:08;8.70;78.10
10316;DHT22;5203;48.976;8.306;2022-11-20T16:16:53;8.80;78.00
10316;DHT22;5203;48.976;8.306;2022-11-20T16:19:19;8.70;79.80
10316;DHT22;5203;48.976;8.306;2022-11-20T16:21:45;8.70;79.20
10316;DHT22;5203;48.976;8.306;2022-11-20T16:24:12;8.80;77.80
10316;DHT22;5203;48.976;8.306;2022-11-20T16:26:39;8.70;79.00
10316;DHT22;5203;48.976;8.306;2022-11-20T16:29:06;8.80;77.30
10316;DHT22;5203;48.976;8.306;2022-11-20T16:31:33;8.80;78.10
10316;DHT22;5203;48.976;8.306;2022-11-20T16:34:01;8.80;79.80
10316;DHT22;5203;48.976;8.306;2022-11-20T16:36:28;8.70;78.40
10316;DHT22;5203;48.976;8.306;2022-11-20T16:38:59;8.70;78.90
10316;DHT22;5203;48.976;8.306;2022-11-20T16:41:27;8.80;78.50
10316;DHT22;5203;48.976;8.306;2022-11-20T16:43:58;8.70;79.10
10316;DHT22;5203;48.976;8.306;2022-11-20T16:46:26;8.70;77.80
10316;DHT22;5203;48.976;8.306;2022-11-20T16:48:57;8.80;77.00
10316;DHT22;5203;48.976;8.306;2022-11-20T16:51:24;8.70;78.60
10316;DHT22;5203;48.976;8.306;2022-11-20T16:53:51;8.60;80.10
10316;DHT22;5203;48.976;8.306;2022-11-20T16:56:19;8.60;79.30
10316;DHT22;5203;48.976;8.306;2022-11-20T16:58:47;8.60;79.20
10316;DHT22;5203;48.976;8.306;2022-11-20T17:01:15;8.60;80.80
10316;DHT22;5203;48.976;8.306;2022-11-20T17:03:43;8.70;79.80
10316;DHT22;5203;48.976;8.306;2022-11-20T17:06:15;8.70;79.30
10316;DHT22;5203;48.976;8.306;2022-11-20T17:08:41;8.60;79.40
10316;DHT22;5203;48.976;8.306;2022-11-20T17:11:08;8.60;80.80
10316;DHT22;5203;48.976;8.306;2022-11-20T17:13:35;8.60;80.60
10316;DHT22;5203;48.976;8.306;2022-11-20T17:16:03;8.50;83.00
10316;DHT22;5203;48.976;8.306;2022-11-20T17:18:30;8.60;83.80
10316;DHT22;5203;48.976;8.306;2022-11-20T17:20:56;8.50;87.30
10316;DHT22;5203;48.976;8.306;2022-11-20T17:23:22;8.40;90.30
10316;DHT22;5203;48.976;8.306;2022-11-20T17:25:48;8.30;91.70
10316;DHT22;5203;48.976;8.306;2022-11-20T17:28:13;8.20;93.80
10316;DHT22;5203;48.976;8.306;2022-11-20T17:30:39;8.10;94.50
10316;DHT22;5203;48.976;8.306;2022-11-20T17:33:05;8.10;95.40
10316;DHT22;5203;48.976;8.306;2022-11-20T17:35:31;8.10;94.80
10316;DHT22;5203;48.976;8.306;2022-11-20T17:37:56;8.00;95.80
10316;DHT22;5203;48.976;8.306;2022-11-20T17:40:22;8.00;95.80
10316;DHT22;5203;48.976;8.306;2022-11-20T17:42:49;8.00;93.20
10316;DHT22;5203;48.976;8.306;2022-11-20T17:45:14;8.10;93.70
10316;DHT22;5203;48.976;8.306;2022-11-20T17:47:40;8.10;93.50
10316;DHT22;5203;48.976;8.306;2022-11-20T17:50:06;8.10;95.00
10316;DHT22;5203;48.976;8.306;2022-11-20T17:52:32;8.10;95.30
10316;DHT22;5203;48.976;8.306;2022-11-20T17:54:58;8.10;95.00
10316;DHT22;5203;48.976;8.306;2022-11-20T17:57:24;8.10;93.90